createdAt,value
2017-07-21T00:00:07.815Z,19.24
2017-07-21T00:01:20.111Z,19.24
2017-07-21T00:02:32.684Z,19.12
2017-07-21T00:03:45.230Z,19.19
2017-07-21T00:04:57.784Z,19.19
2017-07-21T00:06:10.405Z,19.11
2017-07-21T00:07:22.990Z,19.2
2017-07-21T00:08:35.658Z,19.05
2017-07-21T00:09:48.233Z,19.15
2017-07-21T00:11:00.778Z,19.08
2017-07-21T00:12:13.426Z,19.08
2017-07-21T00:13:25.973Z,19.01
2017-07-21T00:14:38.540Z,18.94
2017-07-21T00:15:51.121Z,18.97
2017-07-21T00:17:03.457Z,18.98
2017-07-21T00:18:16.020Z,18.97
2017-07-21T00:19:28.310Z,18.94
2017-07-21T00:20:40.930Z,18.97
2017-07-21T00:21:53.220Z,18.97
2017-07-21T00:23:05.803Z,18.89
2017-07-21T00:24:18.388Z,18.86
2017-07-21T00:25:31.008Z,18.85
2017-07-21T00:26:43.604Z,18.82
2017-07-21T00:27:56.219Z,18.85
2017-07-21T00:29:08.842Z,18.86
2017-07-21T00:30:21.174Z,18.83
2017-07-21T00:31:33.735Z,18.79
2017-07-21T00:32:46.364Z,18.73
2017-07-21T00:33:58.622Z,18.79
2017-07-21T00:35:10.930Z,18.85
2017-07-21T00:36:23.508Z,18.81
2017-07-21T00:37:35.509Z,18.79
2017-07-21T00:38:47.819Z,18.7
2017-07-21T00:40:00.404Z,18.66
2017-07-21T00:41:12.366Z,18.63
2017-07-21T00:42:24.601Z,18.67
2017-07-21T00:43:37.158Z,18.64
2017-07-21T00:44:49.762Z,18.67
2017-07-21T00:46:02.336Z,18.64
2017-07-21T00:47:14.652Z,18.67
2017-07-21T00:48:27.201Z,18.64
2017-07-21T00:49:39.795Z,18.6
2017-07-21T00:50:51.800Z,18.61
2017-07-21T00:52:04.152Z,18.55
2017-07-21T00:53:16.708Z,18.49
2017-07-21T00:54:29.336Z,18.49
2017-07-21T00:55:41.578Z,18.48
2017-07-21T00:56:53.930Z,18.52
2017-07-21T00:58:06.609Z,18.51
2017-07-21T00:59:19.199Z,18.49
2017-07-21T01:00:31.840Z,18.53
2017-07-21T01:01:44.459Z,18.51
2017-07-21T01:02:57.018Z,18.41
2017-07-21T01:04:09.323Z,18.43
2017-07-21T01:05:21.870Z,18.45
2017-07-21T01:06:34.419Z,18.39
2017-07-21T01:07:47.009Z,18.34
2017-07-21T01:08:59.523Z,18.33
2017-07-21T01:10:12.379Z,18.39
2017-07-21T01:11:24.914Z,18.37
2017-07-21T01:12:37.194Z,18.31
2017-07-21T01:13:49.127Z,18.28
2017-07-21T01:15:01.460Z,18.27
2017-07-21T01:16:14.117Z,18.27
2017-07-21T01:17:26.718Z,18.3
2017-07-21T01:18:38.964Z,18.3
2017-07-21T01:19:51.494Z,18.3
2017-07-21T01:21:03.765Z,18.41
2017-07-21T01:22:16.084Z,18.27
2017-07-21T01:23:28.461Z,18.24
2017-07-21T01:24:41.076Z,18.26
2017-07-21T01:25:53.666Z,18.3
2017-07-21T01:27:06.187Z,18.27
2017-07-21T01:28:18.769Z,18.27
2017-07-21T01:29:31.392Z,18.24
2017-07-21T01:30:44.034Z,18.23
2017-07-21T01:31:56.570Z,18.15
2017-07-21T01:33:09.197Z,18.18
2017-07-21T01:34:21.443Z,18.12
2017-07-21T01:35:34.008Z,18.12
2017-07-21T01:36:46.625Z,18.16
2017-07-21T01:37:58.940Z,18.15
2017-07-21T01:39:11.204Z,18.16
2017-07-21T01:40:23.425Z,18.12
2017-07-21T01:41:35.756Z,18.12
2017-07-21T01:42:48.083Z,18.02
2017-07-21T01:44:00.718Z,18.03
2017-07-21T01:45:13.332Z,18.06
2017-07-21T01:46:25.978Z,18.06
2017-07-21T01:47:37.653Z,18
2017-07-21T01:48:50.299Z,18.06
2017-07-21T01:50:02.920Z,17.97
2017-07-21T01:51:15.204Z,18.03
2017-07-21T01:52:27.145Z,17.98
2017-07-21T01:53:39.722Z,18.02
2017-07-21T01:54:52.036Z,18.03
2017-07-21T01:56:04.670Z,18.02
2017-07-21T01:57:16.988Z,17.94
2017-07-21T01:58:28.968Z,17.88
2017-07-21T01:59:41.527Z,17.95
2017-07-21T02:00:54.065Z,17.91
2017-07-21T02:02:06.652Z,17.9
2017-07-21T02:03:18.939Z,17.93
2017-07-21T02:04:31.819Z,17.88
2017-07-21T02:05:44.392Z,17.93
2017-07-21T02:06:57.036Z,17.9
2017-07-21T02:08:09.643Z,17.87
2017-07-21T02:09:22.248Z,17.87
2017-07-21T02:10:34.862Z,17.86
2017-07-21T02:11:46.792Z,17.8
2017-07-21T02:12:59.152Z,17.82
2017-07-21T02:14:11.422Z,17.76
2017-07-21T02:15:24.028Z,17.79
2017-07-21T02:16:36.368Z,17.79
2017-07-21T02:17:48.889Z,17.75
2017-07-21T02:19:01.510Z,17.78
2017-07-21T02:20:14.139Z,17.73
2017-07-21T02:21:26.739Z,17.72
2017-07-21T02:22:39.406Z,17.75
2017-07-21T02:23:51.655Z,17.66
2017-07-21T02:25:04.254Z,17.63
2017-07-21T02:26:16.860Z,17.57
2017-07-21T02:27:28.896Z,17.69
2017-07-21T02:28:41.536Z,17.6
2017-07-21T02:29:54.156Z,17.65
2017-07-21T02:31:06.801Z,17.59
2017-07-21T02:32:19.365Z,17.54
2017-07-21T02:33:31.928Z,17.57
2017-07-21T02:34:44.540Z,17.54
2017-07-21T02:35:56.737Z,17.63
2017-07-21T02:37:09.324Z,17.59
2017-07-21T02:38:21.609Z,17.59
2017-07-21T02:39:34.202Z,17.59
2017-07-21T02:40:46.798Z,17.47
2017-07-21T02:41:59.390Z,17.56
2017-07-21T02:43:11.604Z,17.54
2017-07-21T02:44:23.906Z,17.53
2017-07-21T02:45:35.909Z,17.53
2017-07-21T02:46:48.534Z,17.6
2017-07-21T02:48:01.362Z,17.53
2017-07-21T02:49:13.983Z,17.53
2017-07-21T02:50:26.225Z,17.53
2017-07-21T02:51:38.911Z,17.5
2017-07-21T02:52:51.497Z,17.59
2017-07-21T02:54:04.124Z,17.53
2017-07-21T02:55:16.430Z,17.57
2017-07-21T02:56:28.757Z,17.54
2017-07-21T02:57:41.038Z,17.53
2017-07-21T02:58:53.633Z,17.52
2017-07-21T03:00:06.205Z,17.59
2017-07-21T03:01:18.861Z,17.53
2017-07-21T03:02:31.498Z,17.52
2017-07-21T03:03:43.791Z,17.5
2017-07-21T03:04:56.423Z,17.54
2017-07-21T03:06:08.637Z,17.56
2017-07-21T03:07:21.204Z,17.5
2017-07-21T03:08:33.503Z,17.53
2017-07-21T03:09:45.738Z,17.56
2017-07-21T03:10:58.254Z,17.52
2017-07-21T03:12:10.855Z,17.52
2017-07-21T03:13:22.883Z,17.53
2017-07-21T03:14:35.442Z,17.5
2017-07-21T03:15:48.029Z,17.49
2017-07-21T03:17:00.008Z,17.49
2017-07-21T03:18:12.610Z,17.53
2017-07-21T03:19:24.596Z,17.57
2017-07-21T03:20:37.459Z,17.53
2017-07-21T03:21:50.031Z,17.53
2017-07-21T03:23:02.594Z,17.63
2017-07-21T03:24:15.196Z,17.6
2017-07-21T03:25:27.182Z,17.59
2017-07-21T03:26:39.789Z,17.56
2017-07-21T03:27:52.435Z,17.65
2017-07-21T03:29:05.082Z,17.66
2017-07-21T03:30:17.695Z,17.78
2017-07-21T03:31:30.302Z,17.69
2017-07-21T03:32:42.292Z,17.65
2017-07-21T03:33:54.871Z,17.72
2017-07-21T03:35:07.463Z,17.73
2017-07-21T03:36:19.732Z,17.75
2017-07-21T03:37:32.363Z,17.79
2017-07-21T03:38:44.952Z,17.79
2017-07-21T03:39:57.630Z,17.71
2017-07-21T03:41:09.890Z,17.78
2017-07-21T03:42:22.479Z,17.75
2017-07-21T03:43:35.092Z,17.76
2017-07-21T03:44:47.034Z,17.79
2017-07-21T03:45:59.377Z,17.78
2017-07-21T03:47:11.657Z,17.79
2017-07-21T03:48:24.283Z,17.79
2017-07-21T03:49:36.866Z,17.78
2017-07-21T03:50:49.481Z,17.76
2017-07-21T03:52:02.108Z,17.8
2017-07-21T03:53:14.423Z,17.8
2017-07-21T03:54:27.056Z,17.86
2017-07-21T03:55:39.648Z,17.79
2017-07-21T03:56:52.279Z,17.8
2017-07-21T03:58:04.844Z,17.84
2017-07-21T03:59:17.082Z,17.86
2017-07-21T04:00:29.678Z,17.8
2017-07-21T04:01:41.920Z,17.84
2017-07-21T04:02:54.173Z,17.84
2017-07-21T04:04:06.800Z,17.84
2017-07-21T04:05:19.414Z,17.88
2017-07-21T04:06:31.715Z,17.87
2017-07-21T04:07:44.326Z,17.9
2017-07-21T04:08:56.899Z,17.9
2017-07-21T04:10:08.895Z,17.95
2017-07-21T04:11:21.531Z,17.93
2017-07-21T04:12:33.789Z,17.9
2017-07-21T04:13:46.028Z,17.87
2017-07-21T04:14:58.651Z,17.93
2017-07-21T04:16:10.571Z,17.9
2017-07-21T04:17:23.185Z,17.9
2017-07-21T04:18:35.737Z,17.98
2017-07-21T04:19:48.033Z,17.97
2017-07-21T04:21:00.592Z,17.98
2017-07-21T04:22:13.256Z,17.91
2017-07-21T04:23:25.908Z,17.97
2017-07-21T04:24:38.496Z,17.94
2017-07-21T04:25:50.814Z,17.98
2017-07-21T04:27:03.154Z,18.08
2017-07-21T04:28:15.756Z,18.05
2017-07-21T04:29:28.060Z,18
2017-07-21T04:30:40.366Z,18.05
2017-07-21T04:31:52.974Z,18.09
2017-07-21T04:33:05.013Z,18.08
2017-07-21T04:34:17.561Z,18.06
2017-07-21T04:35:30.123Z,18
2017-07-21T04:36:42.422Z,18
2017-07-21T04:37:55.049Z,18.06
2017-07-21T04:39:07.354Z,18.15
2017-07-21T04:40:19.350Z,18.05
2017-07-21T04:41:31.372Z,18.16
2017-07-21T04:42:43.660Z,18.16
2017-07-21T04:43:55.925Z,18.12
2017-07-21T04:45:08.501Z,18.12
2017-07-21T04:46:21.084Z,18.12
2017-07-21T04:47:33.767Z,18.19
2017-07-21T04:48:46.372Z,18.16
2017-07-21T04:49:59.008Z,18.27
2017-07-21T04:51:11.611Z,18.24
2017-07-21T04:52:23.940Z,18.26
2017-07-21T04:53:36.503Z,18.3
2017-07-21T04:54:48.803Z,18.24
2017-07-21T04:56:01.115Z,18.26
2017-07-21T04:57:13.723Z,18.31
2017-07-21T04:58:25.714Z,18.39
2017-07-21T04:59:38.000Z,18.26
2017-07-21T05:00:50.288Z,18.39
2017-07-21T05:02:02.918Z,18.33
2017-07-21T05:03:15.539Z,18.24
2017-07-21T05:04:28.427Z,18.26
2017-07-21T05:05:40.781Z,18.39
2017-07-21T05:06:53.036Z,18.31
2017-07-21T05:08:05.695Z,18.34
2017-07-21T05:09:18.268Z,18.36
2017-07-21T05:10:30.572Z,18.43
2017-07-21T05:11:43.183Z,18.43
2017-07-21T05:12:55.480Z,18.46
2017-07-21T05:14:07.676Z,18.39
2017-07-21T05:15:20.264Z,18.51
2017-07-21T05:16:32.845Z,18.51
2017-07-21T05:17:45.139Z,18.51
2017-07-21T05:18:57.698Z,18.57
2017-07-21T05:20:10.361Z,18.61
2017-07-21T05:21:23.000Z,18.64
2017-07-21T05:22:34.988Z,18.63
2017-07-21T05:23:47.532Z,18.61
2017-07-21T05:24:59.805Z,18.74
2017-07-21T05:26:11.813Z,18.68
2017-07-21T05:27:24.416Z,18.82
2017-07-21T05:28:36.731Z,18.86
2017-07-21T05:29:48.989Z,18.79
2017-07-21T05:31:01.575Z,18.83
2017-07-21T05:32:14.224Z,18.92
2017-07-21T05:33:26.444Z,18.89
2017-07-21T05:34:38.980Z,18.97
2017-07-21T05:35:50.955Z,19.05
2017-07-21T05:37:03.448Z,19.01
2017-07-21T05:38:15.747Z,19.09
2017-07-21T05:39:28.345Z,19.08
2017-07-21T05:40:40.996Z,19.17
2017-07-21T05:41:53.261Z,19.2
2017-07-21T05:43:05.270Z,19.3
2017-07-21T05:44:17.629Z,19.32
2017-07-21T05:45:30.195Z,19.37
2017-07-21T05:46:42.770Z,19.35
2017-07-21T05:47:55.054Z,19.38
2017-07-21T05:49:07.662Z,19.44
2017-07-21T05:50:19.620Z,19.44
2017-07-21T05:51:31.855Z,19.49
2017-07-21T05:52:44.145Z,19.57
2017-07-21T05:53:56.741Z,19.57
2017-07-21T05:55:09.322Z,19.63
2017-07-21T05:56:21.285Z,19.59
2017-07-21T05:57:33.854Z,19.59
2017-07-21T05:58:46.093Z,19.66
2017-07-21T05:59:58.726Z,19.77
2017-07-21T06:01:11.067Z,19.71
2017-07-21T06:02:23.305Z,19.81
2017-07-21T06:03:36.112Z,19.77
2017-07-21T06:04:48.659Z,19.78
2017-07-21T06:06:00.975Z,19.81
2017-07-21T06:07:13.582Z,19.92
2017-07-21T06:08:26.221Z,19.9
2017-07-21T06:09:38.811Z,19.94
2017-07-21T06:10:51.059Z,20.08
2017-07-21T06:12:03.710Z,20.12
2017-07-21T06:13:15.679Z,20.11
2017-07-21T06:14:27.946Z,20.15
2017-07-21T06:15:40.584Z,20.19
2017-07-21T06:16:52.905Z,20.22
2017-07-21T06:18:05.534Z,20.34
2017-07-21T06:19:18.097Z,20.44
2017-07-21T06:20:30.393Z,20.33
2017-07-21T06:21:43.030Z,20.37
2017-07-21T06:22:55.649Z,20.52
2017-07-21T06:24:08.232Z,20.55
2017-07-21T06:25:20.510Z,20.7
2017-07-21T06:26:33.123Z,20.68
2017-07-21T06:27:45.077Z,20.71
2017-07-21T06:28:57.646Z,20.77
2017-07-21T06:30:10.193Z,20.86
2017-07-21T06:31:22.483Z,20.93
2017-07-21T06:32:35.063Z,20.9
2017-07-21T06:33:47.354Z,21.03
2017-07-21T06:34:59.928Z,21.28
2017-07-21T06:36:11.860Z,21.28
2017-07-21T06:37:24.203Z,21.44
2017-07-21T06:38:36.842Z,21.44
2017-07-21T06:39:49.141Z,21.74
2017-07-21T06:41:01.735Z,21.89
2017-07-21T06:42:14.006Z,22.06
2017-07-21T06:43:26.613Z,22.1
2017-07-21T06:44:38.955Z,22.33
2017-07-21T06:45:50.967Z,22.34
2017-07-21T06:47:03.604Z,22.53
2017-07-21T06:48:15.919Z,22.68
2017-07-21T06:49:28.490Z,22.78
2017-07-21T06:50:41.181Z,23.02
2017-07-21T06:51:53.492Z,23.29
2017-07-21T06:53:05.749Z,23.64
2017-07-21T06:54:18.037Z,23.91
2017-07-21T06:55:30.332Z,24.22
2017-07-21T06:56:42.653Z,24.51
2017-07-21T06:57:54.979Z,24.78
2017-07-21T06:59:07.519Z,25.25
2017-07-21T07:00:19.815Z,25.41
2017-07-21T07:01:32.462Z,25.73
2017-07-21T07:02:44.116Z,25.93
2017-07-21T07:03:56.785Z,26.07
2017-07-21T07:05:09.340Z,26.31
2017-07-21T07:06:21.653Z,26.52
2017-07-21T07:07:33.978Z,26.67
2017-07-21T07:08:46.280Z,27.03
2017-07-21T07:09:58.901Z,27.11
2017-07-21T07:11:11.467Z,27.26
2017-07-21T07:12:23.839Z,27.47
2017-07-21T07:13:35.821Z,27.72
2017-07-21T07:14:48.085Z,27.78
2017-07-21T07:16:00.056Z,27.86
2017-07-21T07:17:12.345Z,28.01
2017-07-21T07:18:24.656Z,28.09
2017-07-21T07:19:37.251Z,28.16
2017-07-21T07:20:49.806Z,28.04
2017-07-21T07:22:02.404Z,28.13
2017-07-21T07:23:15.070Z,28.08
2017-07-21T07:24:27.754Z,28.01
2017-07-21T07:25:40.348Z,28.22
2017-07-21T07:26:52.954Z,28.12
2017-07-21T07:28:04.976Z,28.16
2017-07-21T07:29:17.299Z,28.33
2017-07-21T07:30:29.889Z,28.25
2017-07-21T07:31:42.443Z,28.33
2017-07-21T07:32:55.131Z,28.27
2017-07-21T07:34:07.701Z,28.35
2017-07-21T07:35:20.353Z,28.41
2017-07-21T07:36:32.955Z,28.46
2017-07-21T07:37:45.289Z,28.5
2017-07-21T07:38:57.917Z,28.62
2017-07-21T07:40:10.498Z,28.53
2017-07-21T07:41:22.815Z,28.57
2017-07-21T07:42:35.152Z,28.71
2017-07-21T07:43:47.762Z,28.67
2017-07-21T07:45:00.068Z,28.65
2017-07-21T07:46:12.685Z,28.78
2017-07-21T07:47:25.024Z,28.6
2017-07-21T07:48:37.609Z,28.28
2017-07-21T07:49:50.230Z,28.31
2017-07-21T07:51:02.860Z,28.18
2017-07-21T07:52:15.082Z,28.22
2017-07-21T07:53:27.669Z,28.33
2017-07-21T07:54:40.268Z,28.38
2017-07-21T07:55:52.876Z,28.25
2017-07-21T07:57:05.541Z,28.23
2017-07-21T07:58:17.773Z,28.23
2017-07-21T07:59:30.058Z,28.16
2017-07-21T08:00:42.639Z,28.18
2017-07-21T08:01:54.988Z,28.03
2017-07-21T08:03:07.295Z,27.94
2017-07-21T08:04:19.655Z,27.76
2017-07-21T08:05:32.320Z,27.76
2017-07-21T08:06:44.883Z,27.75
2017-07-21T08:07:56.865Z,27.78
2017-07-21T08:09:09.125Z,27.95
2017-07-21T08:10:21.783Z,27.88
2017-07-21T08:11:34.392Z,27.61
2017-07-21T08:12:47.019Z,27.68
2017-07-21T08:13:59.321Z,27.64
2017-07-21T08:15:11.892Z,27.5
2017-07-21T08:16:24.434Z,27.41
2017-07-21T08:17:37.093Z,27.44
2017-07-21T08:18:49.761Z,27.11
2017-07-21T08:20:02.373Z,27.1
2017-07-21T08:21:14.684Z,26.97
2017-07-21T08:22:26.994Z,26.76
2017-07-21T08:23:39.300Z,26.73
2017-07-21T08:24:51.598Z,26.68
2017-07-21T08:26:03.904Z,26.51
2017-07-21T08:27:16.514Z,26.33
2017-07-21T08:28:29.074Z,26.48
2017-07-21T08:29:41.664Z,26.29
2017-07-21T08:30:54.283Z,26.27
2017-07-21T08:32:06.608Z,26.24
2017-07-21T08:33:19.239Z,26.11
2017-07-21T08:34:31.173Z,25.98
2017-07-21T08:35:43.778Z,25.98
2017-07-21T08:36:56.302Z,25.91
2017-07-21T08:38:08.935Z,25.85
2017-07-21T08:39:20.904Z,25.63
2017-07-21T08:40:33.156Z,25.67
2017-07-21T08:41:45.793Z,25.66
2017-07-21T08:42:58.112Z,25.63
2017-07-21T08:44:10.634Z,25.68
2017-07-21T08:45:23.236Z,25.77
2017-07-21T08:46:35.168Z,25.77
2017-07-21T08:47:47.806Z,25.7
2017-07-21T08:49:00.151Z,25.73
2017-07-21T08:50:12.465Z,25.73
2017-07-21T08:51:25.026Z,25.67
2017-07-21T08:52:37.335Z,25.8
2017-07-21T08:53:49.914Z,25.77
2017-07-21T08:55:01.903Z,25.8
2017-07-21T08:56:14.180Z,25.89
2017-07-21T08:57:26.787Z,26.01
2017-07-21T08:58:39.383Z,26.08
2017-07-21T08:59:52.018Z,26.19
2017-07-21T09:01:04.035Z,26.22
2017-07-21T09:02:16.628Z,26.31
2017-07-21T09:03:29.217Z,26.36
2017-07-21T09:04:41.795Z,26.42
2017-07-21T09:05:54.470Z,26.51
2017-07-21T09:07:07.144Z,26.61
2017-07-21T09:08:19.787Z,26.64
2017-07-21T09:09:32.126Z,26.67
2017-07-21T09:10:44.428Z,26.74
2017-07-21T09:11:57.017Z,26.76
2017-07-21T09:13:09.077Z,26.91
2017-07-21T09:14:21.354Z,26.92
2017-07-21T09:15:33.948Z,26.81
2017-07-21T09:16:46.558Z,26.76
2017-07-21T09:17:58.920Z,26.55
2017-07-21T09:19:10.907Z,26.6
2017-07-21T09:20:23.459Z,26.6
2017-07-21T09:21:36.029Z,26.59
2017-07-21T09:22:48.639Z,26.53
2017-07-21T09:24:00.635Z,26.59
2017-07-21T09:25:12.883Z,26.59
2017-07-21T09:26:24.896Z,26.78
2017-07-21T09:27:37.490Z,26.89
2017-07-21T09:28:49.819Z,26.96
2017-07-21T09:30:02.433Z,27.19
2017-07-21T09:31:14.412Z,27.28
2017-07-21T09:32:27.012Z,27.26
2017-07-21T09:33:39.650Z,27.4
2017-07-21T09:34:51.591Z,27.47
2017-07-21T09:36:04.188Z,27.52
2017-07-21T09:37:16.754Z,27.71
2017-07-21T09:38:29.083Z,27.88
2017-07-21T09:39:41.406Z,28.04
2017-07-21T09:40:54.073Z,28.18
2017-07-21T09:42:06.617Z,28.23
2017-07-21T09:43:18.847Z,28.23
2017-07-21T09:44:31.502Z,28.28
2017-07-21T09:45:43.831Z,28.38
2017-07-21T09:46:55.776Z,28.46
2017-07-21T09:48:08.371Z,28.65
2017-07-21T09:49:20.423Z,28.74
2017-07-21T09:50:33.046Z,28.83
2017-07-21T09:51:45.354Z,28.68
2017-07-21T09:52:57.963Z,28.68
2017-07-21T09:54:09.656Z,28.7
2017-07-21T09:55:22.234Z,28.72
2017-07-21T09:56:34.532Z,28.72
2017-07-21T09:57:46.543Z,28.8
2017-07-21T09:58:58.879Z,28.82
2017-07-21T10:00:11.487Z,28.77
2017-07-21T10:01:24.129Z,28.87
2017-07-21T10:02:36.091Z,28.84
2017-07-21T10:03:48.659Z,28.86
2017-07-21T10:05:01.352Z,28.93
2017-07-21T10:06:13.704Z,29.1
2017-07-21T10:07:26.008Z,29.34
2017-07-21T10:08:38.252Z,29.5
2017-07-21T10:09:50.549Z,29.64
2017-07-21T10:11:03.175Z,29.74
2017-07-21T10:12:15.483Z,30.02
2017-07-21T10:13:28.087Z,30.31
2017-07-21T10:14:40.385Z,30.49
2017-07-21T10:15:52.924Z,30.8
2017-07-21T10:17:05.552Z,30.85
2017-07-21T10:18:18.196Z,31.1
2017-07-21T10:19:30.841Z,31.23
2017-07-21T10:20:43.473Z,31.33
2017-07-21T10:21:55.825Z,31.44
2017-07-21T10:23:08.122Z,31.52
2017-07-21T10:24:20.736Z,31.62
2017-07-21T10:25:33.346Z,31.66
2017-07-21T10:26:45.610Z,31.95
2017-07-21T10:27:58.266Z,32.04
2017-07-21T10:29:10.925Z,32.17
2017-07-21T10:30:23.230Z,32.38
2017-07-21T10:31:35.801Z,32.54
2017-07-21T10:32:48.067Z,32.67
2017-07-21T10:34:00.679Z,32.9
2017-07-21T10:35:13.391Z,33.01
2017-07-21T10:36:25.676Z,33.1
2017-07-21T10:37:37.962Z,33.33
2017-07-21T10:38:50.312Z,33.39
2017-07-21T10:40:02.632Z,33.61
2017-07-21T10:41:14.994Z,33.7
2017-07-21T10:42:27.038Z,33.67
2017-07-21T10:43:39.342Z,33.58
2017-07-21T10:44:51.589Z,33.66
2017-07-21T10:46:04.176Z,33.65
2017-07-21T10:47:16.816Z,33.67
2017-07-21T10:48:29.442Z,33.55
2017-07-21T10:49:42.125Z,33.44
2017-07-21T10:50:54.464Z,33.05
2017-07-21T10:52:07.092Z,32.97
2017-07-21T10:53:18.726Z,32.82
2017-07-21T10:54:31.321Z,32.86
2017-07-21T10:55:43.004Z,32.88
2017-07-21T10:56:55.668Z,32.94
2017-07-21T10:58:07.967Z,33
2017-07-21T10:59:20.524Z,33.09
2017-07-21T11:00:33.126Z,33.35
2017-07-21T11:01:45.150Z,33.5
2017-07-21T11:02:57.156Z,33.77
2017-07-21T11:04:09.752Z,33.61
2017-07-21T11:05:22.373Z,33.76
2017-07-21T11:06:35.034Z,33.81
2017-07-21T11:07:47.604Z,34.02
2017-07-21T11:08:59.579Z,34.22
2017-07-21T11:10:11.945Z,34.48
2017-07-21T11:11:24.264Z,34.58
2017-07-21T11:12:36.936Z,34.65
2017-07-21T11:13:48.875Z,34.76
2017-07-21T11:15:01.509Z,34.82
2017-07-21T11:16:14.173Z,34.89
2017-07-21T11:17:26.455Z,34.76
2017-07-21T11:18:38.747Z,34.78
2017-07-21T11:19:51.104Z,34.79
2017-07-21T11:21:03.737Z,34.79
2017-07-21T11:22:16.036Z,34.82
2017-07-21T11:23:28.607Z,34.79
2017-07-21T11:24:41.222Z,34.71
2017-07-21T11:25:53.842Z,34.59
2017-07-21T11:27:06.455Z,34.6
2017-07-21T11:28:18.769Z,34.48
2017-07-21T11:29:30.815Z,34.35
2017-07-21T11:30:43.126Z,34.18
2017-07-21T11:31:55.770Z,33.94
2017-07-21T11:33:08.410Z,33.77
2017-07-21T11:34:21.038Z,33.81
2017-07-21T11:35:33.644Z,33.91
2017-07-21T11:36:46.307Z,33.84
2017-07-21T11:37:58.936Z,33.77
2017-07-21T11:39:11.522Z,33.87
2017-07-21T11:40:24.368Z,33.82
2017-07-21T11:41:36.642Z,33.88
2017-07-21T11:42:48.942Z,33.77
2017-07-21T11:44:01.517Z,33.82
2017-07-21T11:45:13.218Z,33.94
2017-07-21T11:46:25.553Z,33.87
2017-07-21T11:47:38.154Z,33.91
2017-07-21T11:48:50.757Z,34.04
2017-07-21T11:50:02.162Z,34.1
2017-07-21T11:51:14.480Z,34.21
2017-07-21T11:52:26.502Z,34.28
2017-07-21T11:53:39.117Z,34.11
2017-07-21T11:54:51.419Z,34.07
2017-07-21T11:56:03.978Z,34.07
2017-07-21T11:57:16.596Z,34.21
2017-07-21T11:58:28.935Z,34.32
2017-07-21T11:59:41.284Z,34.53
2017-07-21T12:00:53.928Z,34.63
2017-07-21T12:02:06.560Z,34.85
2017-07-21T12:03:18.896Z,35.05
2017-07-21T12:04:31.286Z,35.27
2017-07-21T12:05:43.934Z,35.41
2017-07-21T12:06:56.552Z,35.61
2017-07-21T12:08:09.134Z,35.66
2017-07-21T12:09:21.175Z,35.71
2017-07-21T12:10:33.189Z,35.9
2017-07-21T12:11:45.802Z,35.76
2017-07-21T12:12:57.775Z,35.82
2017-07-21T12:14:10.354Z,35.97
2017-07-21T12:15:23.003Z,36.09
2017-07-21T12:16:35.048Z,36.01
2017-07-21T12:17:47.593Z,36.08
2017-07-21T12:19:00.190Z,35.93
2017-07-21T12:20:12.485Z,35.82
2017-07-21T12:21:25.097Z,35.44
2017-07-21T12:22:37.699Z,35.18
2017-07-21T12:23:50.224Z,34.96
2017-07-21T12:25:02.591Z,34.81
2017-07-21T12:26:14.230Z,34.82
2017-07-21T12:27:26.886Z,34.76
2017-07-21T12:28:38.871Z,34.81
2017-07-21T12:29:51.474Z,34.82
2017-07-21T12:31:04.073Z,34.81
2017-07-21T12:32:16.676Z,34.98
2017-07-21T12:33:29.048Z,35.05
2017-07-21T12:34:41.662Z,35.13
2017-07-21T12:35:54.213Z,35.35
2017-07-21T12:37:06.868Z,35.31
2017-07-21T12:38:18.845Z,35.66
2017-07-21T12:39:31.474Z,35.82
2017-07-21T12:40:43.744Z,36.11
2017-07-21T12:41:56.035Z,36.24
2017-07-21T12:43:08.373Z,36.43
2017-07-21T12:44:20.684Z,36.57
2017-07-21T12:45:32.649Z,36.66
2017-07-21T12:46:45.209Z,36.82
2017-07-21T12:47:57.490Z,37.01
2017-07-21T12:49:10.066Z,37.14
2017-07-21T12:50:22.106Z,37.25
2017-07-21T12:51:34.712Z,37.54
2017-07-21T12:52:47.322Z,37.67
2017-07-21T12:53:59.955Z,38
2017-07-21T12:55:12.292Z,38.09
2017-07-21T12:56:24.537Z,38.02
2017-07-21T12:57:36.826Z,38.2
2017-07-21T12:58:49.428Z,38.23
2017-07-21T13:00:01.672Z,38.34
2017-07-21T13:01:13.665Z,38.48
2017-07-21T13:02:25.966Z,38.34
2017-07-21T13:03:38.301Z,38.29
2017-07-21T13:04:50.656Z,38.34
2017-07-21T13:06:03.356Z,38.19
2017-07-21T13:07:15.380Z,37.98
2017-07-21T13:08:27.966Z,37.86
2017-07-21T13:09:40.209Z,37.6
2017-07-21T13:10:52.815Z,37.25
2017-07-21T13:12:05.134Z,36.91
2017-07-21T13:13:17.404Z,36.62
2017-07-21T13:14:29.991Z,36.36
2017-07-21T13:15:42.605Z,35.81
2017-07-21T13:16:55.189Z,35.69
2017-07-21T13:18:08.141Z,35.47
2017-07-21T13:19:20.450Z,35.34
2017-07-21T13:20:33.052Z,35.12
2017-07-21T13:21:45.342Z,34.98
2017-07-21T13:22:57.644Z,34.93
2017-07-21T13:24:09.943Z,34.83
2017-07-21T13:25:22.491Z,34.65
2017-07-21T13:26:35.169Z,34.44
2017-07-21T13:27:47.430Z,34.18
2017-07-21T13:28:59.680Z,33.85
2017-07-21T13:30:12.345Z,33.57
2017-07-21T13:31:24.029Z,33.61
2017-07-21T13:32:36.708Z,33.55
2017-07-21T13:33:49.302Z,33.67
2017-07-21T13:35:01.618Z,33.55
2017-07-21T13:36:14.267Z,33.17
2017-07-21T13:37:26.871Z,33.01
2017-07-21T13:38:39.468Z,32.82
2017-07-21T13:39:52.114Z,32.75
2017-07-21T13:41:04.733Z,32.6
2017-07-21T13:42:17.002Z,32.39
2017-07-21T13:43:29.278Z,32.37
2017-07-21T13:44:41.876Z,32.24
2017-07-21T13:45:54.474Z,32.19
2017-07-21T13:47:06.512Z,32.34
2017-07-21T13:48:18.791Z,32.45
2017-07-21T13:49:31.085Z,32.57
2017-07-21T13:50:43.679Z,32.72
2017-07-21T13:51:56.284Z,32.81
2017-07-21T13:53:08.290Z,32.86
2017-07-21T13:54:20.593Z,32.85
2017-07-21T13:55:32.927Z,32.83
2017-07-21T13:56:45.582Z,32.76
2017-07-21T13:57:58.153Z,32.73
2017-07-21T13:59:10.749Z,32.63
2017-07-21T14:00:23.061Z,32.68
2017-07-21T14:01:35.671Z,32.46
2017-07-21T14:02:48.283Z,32.45
2017-07-21T14:04:00.824Z,32.46
2017-07-21T14:05:13.390Z,32.16
2017-07-21T14:06:25.724Z,32.05
2017-07-21T14:07:38.362Z,31.89
2017-07-21T14:08:50.941Z,31.73
2017-07-21T14:10:03.552Z,31.55
2017-07-21T14:11:15.863Z,31.54
2017-07-21T14:12:28.433Z,31.35
2017-07-21T14:13:41.011Z,31.23
2017-07-21T14:14:53.048Z,31.07
2017-07-21T14:16:05.646Z,31.05
2017-07-21T14:17:18.266Z,30.95
2017-07-21T14:18:30.875Z,30.83
2017-07-21T14:19:43.495Z,30.91
2017-07-21T14:20:56.099Z,30.92
2017-07-21T14:22:08.046Z,30.93
2017-07-21T14:23:20.719Z,30.93
2017-07-21T14:24:33.019Z,31.15
2017-07-21T14:25:45.612Z,31.1
2017-07-21T14:26:58.178Z,31.25
2017-07-21T14:28:10.419Z,31.41
2017-07-21T14:29:22.757Z,31.62
2017-07-21T14:30:35.299Z,31.81
2017-07-21T14:31:47.941Z,31.95
2017-07-21T14:33:00.557Z,32.35
2017-07-21T14:34:12.858Z,32.41
2017-07-21T14:35:25.167Z,32.64
2017-07-21T14:36:37.796Z,32.76
2017-07-21T14:37:50.428Z,32.88
2017-07-21T14:39:03.015Z,33.05
2017-07-21T14:40:15.337Z,33.2
2017-07-21T14:41:27.658Z,33.47
2017-07-21T14:42:40.338Z,33.55
2017-07-21T14:43:52.883Z,33.61
2017-07-21T14:45:05.521Z,33.65
2017-07-21T14:46:18.256Z,33.85
2017-07-21T14:47:30.545Z,33.97
2017-07-21T14:48:43.186Z,34.22
2017-07-21T14:49:55.829Z,34.37
2017-07-21T14:51:08.448Z,34.5
2017-07-21T14:52:20.789Z,34.6
2017-07-21T14:53:33.097Z,34.65
2017-07-21T14:54:45.428Z,34.48
2017-07-21T14:55:58.072Z,34.44
2017-07-21T14:57:10.076Z,34.18
2017-07-21T14:58:22.733Z,33.95
2017-07-21T14:59:35.048Z,33.81
2017-07-21T15:00:47.691Z,33.65
2017-07-21T15:01:59.620Z,33.42
2017-07-21T15:03:12.292Z,33.22
2017-07-21T15:04:24.880Z,33.03
2017-07-21T15:05:37.523Z,32.71
2017-07-21T15:06:50.121Z,32.6
2017-07-21T15:08:02.757Z,32.45
2017-07-21T15:09:15.318Z,32.34
2017-07-21T15:10:27.940Z,32
2017-07-21T15:11:40.231Z,31.79
2017-07-21T15:12:52.840Z,31.66
2017-07-21T15:14:05.412Z,31.41
2017-07-21T15:15:18.069Z,31.35
2017-07-21T15:16:30.665Z,31.2
2017-07-21T15:17:43.531Z,31.1
2017-07-21T15:18:55.817Z,31.11
2017-07-21T15:20:08.429Z,30.91
2017-07-21T15:21:20.988Z,30.93
2017-07-21T15:22:33.543Z,30.77
2017-07-21T15:23:46.155Z,30.69
2017-07-21T15:24:58.732Z,30.56
2017-07-21T15:26:11.136Z,30.4
2017-07-21T15:27:23.825Z,30.33
2017-07-21T15:28:36.369Z,30.13
2017-07-21T15:29:48.996Z,30.03
2017-07-21T15:31:01.262Z,29.94
2017-07-21T15:32:13.850Z,29.84
2017-07-21T15:33:26.465Z,29.79
2017-07-21T15:34:39.106Z,29.76
2017-07-21T15:35:51.439Z,29.74